Flight Track Log - Related Links

Times and Time Zones

All times are in EDT time to prevent confusion due to time zone crossing. See the KAL1333 flight status page for this flight to view local times or setup timezone preferences in your user account.

Time Position Orientation Groundspeed Altitude Reporting Facility
EDT Latitude Longitude Course Direction KTS MPH feet Rate Location/Type
Fri 09:31:00 PM 37.3706 126.8495 166° South  Level Estimated
Fri 09:32:00 PM 37.2767 126.8788 166° South  Level Estimated
Fri 09:33:00 PM 37.1829 126.9081 166° South  Level Estimated
Fri 09:34:00 PM 37.0890 126.9373 166° South  Level Estimated
Fri 09:35:00 PM 36.9951 126.9664 166° South  Level Estimated
Fri 09:36:00 PM 36.9012 126.9954 166° South  Level Estimated
Fri 09:37:00 PM 36.8073 127.0244 166° South  Level Estimated
Fri 09:38:00 PM 36.7134 127.0533 166° South  Level Estimated
Fri 09:39:00 PM 36.6195 127.0821 166° South  Level Estimated
Fri 09:40:00 PM 36.5256 127.1109 166° South  Level Estimated
Fri 09:41:00 PM 36.4317 127.1396 166° South  Level Estimated
Fri 09:42:00 PM 36.3377 127.1682 166° South  Level Estimated
Fri 09:43:00 PM 36.2438 127.1967 166° South  Level Estimated
Fri 09:44:00 PM 36.1499 127.2252 166° South  Level Estimated
Fri 09:45:00 PM 36.0559 127.2536 166° South  Level Estimated
Fri 09:46:00 PM 35.9619 127.2820 166° South  Level Estimated
Fri 09:47:00 PM 35.8680 127.3103 166° South  Level Estimated
Fri 09:48:00 PM 35.7740 127.3385 166° South  Level Estimated
Fri 09:49:00 PM 35.6800 127.3667 166° South  Level Estimated
Fri 09:50:00 PM 35.5860 127.3947 166° South  Level Estimated
Fri 09:51:00 PM 35.4921 127.4228 166° South  Level Estimated
Fri 09:52:00 PM 35.3980 127.4507 166° South  Level Estimated
Fri 09:53:00 PM 35.3041 127.4786 166° South  Level Estimated
Fri 09:54:00 PM 35.2100 127.5064 166° South  Level Estimated
Fri 09:55:00 PM 35.1160 127.5342 166° South  Level Estimated
Fri 09:56:00 PM 35.0220 127.5619 166° South  Level Estimated
Fri 09:57:00 PM 34.9280 127.5895 166° South  Level Estimated
Fri 09:58:00 PM 34.8398 127.6153 166° South  Level Estimated
Fri 09:59:00 PM 34.8398 127.6153 180° South  Level Estimated
Fri 10:00:00 PM 34.8398 127.6153 180° South  Level Estimated
Fri 10:01:00 PM 34.8398 127.6153 180° South  Level Estimated
Fri 10:02:00 PM 34.8398 127.6153 180° South  Level Estimated
Fri 10:03:00 PM 34.8398 127.6153 180° South  Level Estimated
Fri 10:04:00 PM 34.8398 127.6153 180° South  Level Estimated
Fri 10:05:00 PM 34.8398 127.6153 180° South  Level Estimated
Fri 10:06:00 PM 34.8398 127.6153 180° South  Level Estimated
Fri 10:07:00 PM 34.8398 127.6153 180° South  Level Estimated
Fri 10:08:00 PM 34.8398 127.6153 180° South  Level Estimated
Fri 10:09:00 PM 34.8398 127.6153 180° South  Level Estimated
Fri 10:10:00 PM 34.8398 127.6153 180° South  Level Estimated
Fri 10:11:00 PM 34.8398 127.6153 180° South  Level Estimated
Fri 10:12:00 PM 34.8398 127.6153 180° South  Level Estimated
Fri 10:13:00 PM 34.8398 127.6153 180° South  Level Estimated

Login

Don't have an account? Register now (free) for customized features, flight alerts, and more!